Time;durP1;ratioP1;P1;durP2;ratioP2;P2;SDS_P1;SDS_P2;PMS_P1;PMS_P2;Temp;Humidity;BMP_temperature;BMP_pressure;BME280_temperature;BME280_humidity;BME280_pressure;Samples;Min_cycle;Max_cycle;Signal;HPM_P1;HPM_P2
2022/01/25 00:10:40;;;;;;;22.10;13.90;;;5.40;99.90;;;;;;5115669;28;20884;-72
2022/01/25 00:30:10;;;;;;;19.90;12.33;;;5.20;99.90;;;;;;5115572;28;20827;-72
2022/01/25 00:32:38;;;;;;;21.37;12.87;;;5.20;99.90;;;;;;5115946;28;20456;-72
2022/01/25 00:35:05;;;;;;;19.87;12.77;;;5.30;99.90;;;;;;5115478;28;20464;-72
2022/01/25 00:37:32;;;;;;;18.77;12.77;;;5.30;99.90;;;;;;5115366;28;20826;-72
2022/01/25 00:39:58;;;;;;;19.50;11.87;;;5.30;99.90;;;;;;5115694;28;20464;-72
2022/01/25 00:42:25;;;;;;;20.90;14.37;;;5.30;99.90;;;;;;5115172;28;20480;-72
2022/01/25 00:44:53;;;;;;;18.67;12.17;;;5.30;99.90;;;;;;5115320;28;20593;-72
2022/01/25 00:47:21;;;;;;;23.60;13.60;;;5.30;99.90;;;;;;5115000;28;20503;-72
2022/01/25 00:49:52;;;;;;;22.40;13.53;;;5.30;99.90;;;;;;5115272;28;20828;-72
2022/01/25 00:52:25;;;;;;;20.80;13.83;;;5.30;99.90;;;;;;5114847;28;20451;-72
2022/01/25 00:54:51;;;;;;;21.97;13.63;;;5.30;99.90;;;;;;5115780;28;20894;-72
2022/01/25 00:57:18;;;;;;;19.07;12.90;;;5.30;99.90;;;;;;5115241;28;20779;-72
2022/01/25 00:59:47;;;;;;;18.23;12.23;;;5.30;99.90;;;;;;5115053;28;20457;-72
2022/01/25 01:02:15;;;;;;;20.00;12.57;;;5.30;99.90;;;;;;5114799;28;20467;-72
2022/01/25 01:04:42;;;;;;;20.70;14.00;;;5.30;99.90;;;;;;5115194;28;20521;-72
2022/01/25 01:07:13;;;;;;;23.70;15.47;;;5.20;99.90;;;;;;5115177;28;20792;-71
2022/01/25 01:09:43;;;;;;;21.93;14.03;;;5.20;99.90;;;;;;5115128;28;20535;-72
2022/01/25 01:12:28;;;;;;;25.47;13.80;;;5.20;99.90;;;;;;5114927;28;20463;-72
2022/01/25 01:15:06;;;;;;;22.57;14.17;;;5.20;99.90;;;;;;5115885;28;20892;-72
2022/01/25 01:31:18;;;;;;;22.03;12.90;;;5.10;99.90;;;;;;5117968;28;20557;-72
2022/01/25 01:39:31;;;;;;;21.60;13.70;;;5.10;99.90;;;;;;5115528;28;20443;-71
2022/01/25 01:42:18;;;;;;;31.47;17.00;;;5.00;99.90;;;;;;5115009;28;20448;-72
2022/01/25 01:45:06;;;;;;;25.10;15.27;;;5.10;99.90;;;;;;5114804;28;20885;-72
2022/01/25 01:47:39;;;;;;;25.87;14.83;;;5.10;99.90;;;;;;5114487;28;20559;-72
2022/01/25 01:50:09;;;;;;;27.20;15.93;;;5.10;99.90;;;;;;5114879;28;20842;-72
2022/01/25 01:52:36;;;;;;;21.93;13.27;;;5.20;99.90;;;;;;5114531;28;20437;-72
2022/01/25 01:55:06;;;;;;;23.63;14.07;;;5.20;99.90;;;;;;5114881;28;20459;-72
2022/01/25 01:57:33;;;;;;;23.03;13.73;;;5.10;99.90;;;;;;5114722;28;20448;-72
2022/01/25 02:00:00;;;;;;;22.80;13.97;;;5.20;99.90;;;;;;5114915;28;20460;-72
2022/01/25 02:02:27;;;;;;;28.80;13.67;;;5.10;99.90;;;;;;5115868;28;20944;-72
2022/01/25 02:04:53;;;;;;;24.33;14.23;;;5.10;99.90;;;;;;5118680;28;20456;-72
2022/01/25 02:07:20;;;;;;;28.50;15.37;;;5.10;99.90;;;;;;5118699;28;20456;-72
2022/01/25 02:09:47;;;;;;;25.30;13.97;;;5.00;99.90;;;;;;5118630;28;20487;-72
2022/01/25 02:12:15;;;;;;;21.73;12.47;;;5.10;99.90;;;;;;5118604;28;20467;-72
2022/01/25 02:14:47;;;;;;;28.20;15.70;;;5.10;99.90;;;;;;5118058;28;20453;-71
2022/01/25 02:17:36;;;;;;;28.90;15.37;;;5.10;99.90;;;;;;5118196;28;20451;-71
2022/01/25 02:22:55;;;;;;;23.30;14.20;;;5.10;99.90;;;;;;5117817;28;20472;-71
2022/01/25 02:25:22;;;;;;;26.70;16.10;;;5.10;99.90;;;;;;5117914;28;20448;-71
2022/01/25 02:27:49;;;;;;;28.30;16.37;;;5.10;99.90;;;;;;5118336;28;20448;-71
2022/01/25 02:30:16;;;;;;;26.23;15.97;;;5.10;99.90;;;;;;5120845;28;20827;-72
2022/01/25 02:32:43;;;;;;;29.43;16.57;;;5.10;99.90;;;;;;5127970;28;20460;-71
2022/01/25 02:35:12;;;;;;;31.33;16.53;;;5.10;99.90;;;;;;5127896;28;20450;-72
2022/01/25 02:37:39;;;;;;;35.73;16.77;;;5.00;99.90;;;;;;5125048;28;20804;-71
2022/01/25 02:40:07;;;;;;;32.07;16.67;;;5.00;99.90;;;;;;5126260;28;20452;-71
2022/01/25 02:42:34;;;;;;;35.07;18.13;;;5.00;99.90;;;;;;5127957;28;20452;-71
2022/01/25 02:45:01;;;;;;;36.07;18.30;;;4.90;99.90;;;;;;5126051;28;20467;-71
2022/01/25 02:50:13;;;;;;;29.40;17.40;;;4.80;99.90;;;;;;5118013;28;20424;-72
2022/01/25 02:52:40;;;;;;;31.73;16.90;;;4.80;99.90;;;;;;5117649;28;20456;-71
2022/01/25 02:55:07;;;;;;;34.90;18.10;;;4.80;99.90;;;;;;5117950;28;20769;-71
2022/01/25 02:57:34;;;;;;;33.17;17.50;;;4.80;99.90;;;;;;5117442;28;20460;-71
2022/01/25 03:00:05;;;;;;;31.83;18.70;;;4.80;99.90;;;;;;5117376;28;20924;-71
2022/01/25 03:02:31;;;;;;;35.13;17.20;;;4.80;99.90;;;;;;5117647;28;20770;-71
2022/01/25 03:04:58;;;;;;;36.00;19.03;;;4.80;99.90;;;;;;5117472;28;20567;-71
2022/01/25 03:07:26;;;;;;;38.63;18.73;;;4.80;99.90;;;;;;5117138;28;20485;-72
2022/01/25 03:09:53;;;;;;;39.77;19.03;;;4.80;99.90;;;;;;5117148;28;20471;-71
2022/01/25 03:12:31;;;;;;;32.03;17.93;;;4.80;99.90;;;;;;5117202;28;20767;-71
2022/01/25 03:15:12;;;;;;;33.23;17.67;;;4.80;99.90;;;;;;5116577;28;20437;-71
2022/01/25 03:17:46;;;;;;;31.83;16.87;;;4.70;99.90;;;;;;5117115;28;20780;-71
2022/01/25 03:20:19;;;;;;;37.87;18.70;;;4.70;99.90;;;;;;5117068;28;20441;-71
2022/01/25 03:22:58;;;;;;;36.37;18.30;;;4.60;99.90;;;;;;5117191;27;20816;-71
2022/01/25 03:25:26;;;;;;;33.53;18.13;;;4.60;99.90;;;;;;5116868;28;20527;-72
2022/01/25 03:27:53;;;;;;;37.73;18.70;;;4.60;99.90;;;;;;5116945;28;20453;-71
2022/01/25 03:30:20;;;;;;;33.60;16.90;;;4.50;99.90;;;;;;5116737;28;20456;-71
2022/01/25 03:32:46;;;;;;;37.97;19.00;;;4.60;99.90;;;;;;5116908;28;20457;-71
2022/01/25 03:35:13;;;;;;;40.87;17.73;;;4.60;99.90;;;;;;5116657;28;20460;-71
2022/01/25 03:37:40;;;;;;;31.30;18.13;;;4.60;99.90;;;;;;5116536;28;20449;-71
2022/01/25 03:40:10;;;;;;;36.00;18.13;;;4.60;99.90;;;;;;5116474;28;20933;-71
2022/01/25 03:42:38;;;;;;;31.63;18.00;;;4.60;99.90;;;;;;5116463;28;20897;-70
2022/01/25 03:45:06;;;;;;;34.77;17.20;;;4.60;99.90;;;;;;5116618;28;20984;-71
2022/01/25 03:47:44;;;;;;;31.13;16.10;;;4.60;99.90;;;;;;5116406;28;20563;-71
2022/01/25 03:50:10;;;;;;;30.93;15.23;;;4.60;99.90;;;;;;5116319;28;20814;-70
2022/01/25 03:52:37;;;;;;;31.70;16.80;;;4.50;99.90;;;;;;5116336;28;20513;-71
2022/01/25 03:55:05;;;;;;;31.73;17.83;;;4.50;99.90;;;;;;5116388;28;20461;-71
2022/01/25 03:57:33;;;;;;;41.20;18.20;;;4.50;99.90;;;;;;5116418;28;20460;-71
2022/01/25 04:00:00;;;;;;;30.57;16.53;;;4.50;99.90;;;;;;5116372;28;20467;-71
2022/01/25 04:02:30;;;;;;;32.10;15.70;;;4.50;99.90;;;;;;5115963;28;20468;-72
2022/01/25 04:04:59;;;;;;;34.07;18.37;;;4.50;99.90;;;;;;5116583;28;20559;-71
2022/01/25 04:07:31;;;;;;;36.73;14.70;;;4.50;99.90;;;;;;5116773;28;20482;-71
2022/01/25 04:09:58;;;;;;;33.33;17.73;;;4.50;99.90;;;;;;5117624;28;20441;-71
2022/01/25 04:12:25;;;;;;;30.50;16.40;;;4.50;99.90;;;;;;5116509;28;20525;-71
2022/01/25 04:14:53;;;;;;;30.17;16.50;;;4.60;99.90;;;;;;5115955;28;20929;-71
2022/01/25 04:17:21;;;;;;;32.50;16.13;;;4.60;99.90;;;;;;5115956;28;20482;-71
2022/01/25 04:20:09;;;;;;;40.90;15.93;;;4.50;99.90;;;;;;5116374;28;20479;-71
2022/01/25 04:25:18;;;;;;;30.60;16.00;;;4.50;99.90;;;;;;5115293;28;20464;-71
2022/01/25 04:27:45;;;;;;;31.17;15.60;;;4.50;99.90;;;;;;5115298;28;20471;-70
2022/01/25 04:30:13;;;;;;;30.13;16.20;;;4.50;99.90;;;;;;5115419;28;20460;-71
2022/01/25 04:32:47;;;;;;;28.83;15.50;;;4.50;99.90;;;;;;5115487;28;20453;-71
2022/01/25 04:35:39;;;;;;;24.90;13.40;;;4.50;99.90;;;;;;5115649;28;20493;-71
2022/01/25 04:49:16;;;;;;;27.23;14.03;;;4.60;99.90;;;;;;5115579;28;20436;-71
2022/01/25 04:54:36;;;;;;;33.63;15.03;;;4.60;99.90;;;;;;5113041;28;20444;-71
2022/01/25 04:57:16;;;;;;;27.97;13.93;;;4.60;99.90;;;;;;5115286;28;20440;-71
2022/01/25 04:59:50;;;;;;;26.83;14.40;;;4.60;99.90;;;;;;5115536;28;20437;-71
2022/01/25 05:02:27;;;;;;;25.07;13.77;;;4.60;99.90;;;;;;5114873;28;20433;-71
2022/01/25 05:04:59;;;;;;;30.00;14.50;;;4.60;99.90;;;;;;5115787;28;20771;-71
2022/01/25 05:07:33;;;;;;;32.10;16.23;;;4.60;99.90;;;;;;5115173;28;20455;-71
2022/01/25 05:10:01;;;;;;;31.73;16.30;;;4.60;99.90;;;;;;5115220;28;20440;-71
2022/01/25 05:12:39;;;;;;;25.30;14.50;;;4.50;99.90;;;;;;5114695;28;20986;-72
2022/01/25 05:15:20;;;;;;;28.50;15.03;;;4.50;99.90;;;;;;5115218;28;20463;-71
2022/01/25 05:18:01;;;;;;;29.43;15.00;;;4.50;99.90;;;;;;5115329;28;20501;-71
2022/01/25 05:23:13;;;;;;;30.47;14.63;;;4.50;99.90;;;;;;5114994;28;20423;-71
2022/01/25 05:25:39;;;;;;;31.73;15.03;;;4.50;99.90;;;;;;5114967;28;20484;-70
2022/01/25 05:28:06;;;;;;;30.50;15.40;;;4.50;99.90;;;;;;5114608;28;20888;-70
2022/01/25 05:30:33;;;;;;;30.40;15.33;;;4.50;99.90;;;;;;5114982;28;20506;-71
2022/01/25 05:33:01;;;;;;;24.20;14.30;;;4.50;99.90;;;;;;5114435;28;20521;-70
2022/01/25 05:35:28;;;;;;;29.70;14.40;;;4.50;99.90;;;;;;5115025;28;20736;-71
2022/01/25 05:37:55;;;;;;;31.57;17.30;;;4.40;99.90;;;;;;5116985;28;20467;-70
2022/01/25 05:40:39;;;;;;;34.00;16.60;;;4.40;99.90;;;;;;5118995;28;20561;-70
2022/01/25 05:45:58;;;;;;;29.43;15.67;;;4.40;99.90;;;;;;5095113;28;20503;-72
2022/01/25 05:48:28;;;;;;;26.80;14.77;;;4.50;99.90;;;;;;5118343;28;20615;-70
2022/01/25 05:50:56;;;;;;;34.17;16.70;;;4.50;99.90;;;;;;5118738;28;20463;-70
2022/01/25 05:53:23;;;;;;;26.67;15.20;;;4.50;99.90;;;;;;5118716;28;20467;-70
2022/01/25 05:55:50;;;;;;;31.07;16.67;;;4.50;99.90;;;;;;5118609;28;20760;-70
2022/01/25 05:58:16;;;;;;;28.57;14.83;;;4.50;99.90;;;;;;5118202;28;20460;-70
2022/01/25 06:00:43;;;;;;;34.23;16.10;;;4.50;99.90;;;;;;5119054;28;20469;-72
2022/01/25 06:03:10;;;;;;;34.73;15.97;;;4.50;99.90;;;;;;5118204;28;20892;-72
2022/01/25 06:05:38;;;;;;;32.33;16.50;;;4.50;99.90;;;;;;5118488;28;20493;-71
2022/01/25 06:08:06;;;;;;;26.83;14.93;;;4.40;99.90;;;;;;5118002;28;20456;-71
2022/01/25 06:10:33;;;;;;;35.37;16.90;;;4.50;99.90;;;;;;5117884;28;20916;-71
2022/01/25 06:13:00;;;;;;;32.07;15.40;;;4.50;99.90;;;;;;5118267;27;20838;-71
2022/01/25 06:15:27;;;;;;;27.80;15.80;;;4.40;99.90;;;;;;5117807;28;20460;-71
2022/01/25 06:17:53;;;;;;;29.83;15.80;;;4.40;99.90;;;;;;5118273;27;20475;-72
2022/01/25 06:20:20;;;;;;;31.53;15.80;;;4.40;99.90;;;;;;5118050;27;20463;-72
2022/01/25 06:22:48;;;;;;;30.03;16.00;;;4.40;99.90;;;;;;5118125;28;20467;-71
2022/01/25 06:25:18;;;;;;;31.63;16.07;;;4.40;99.90;;;;;;5117920;28;20472;-71
2022/01/25 06:27:45;;;;;;;29.80;15.67;;;4.50;99.90;;;;;;5118312;28;20456;-71
2022/01/25 06:30:14;;;;;;;30.00;15.67;;;4.50;99.90;;;;;;5117794;28;20788;-71
2022/01/25 06:32:41;;;;;;;31.00;17.03;;;4.40;99.90;;;;;;5117831;28;20464;-71
2022/01/25 06:35:09;;;;;;;35.50;17.40;;;4.50;99.90;;;;;;5117995;27;20463;-71
2022/01/25 06:37:36;;;;;;;29.27;16.80;;;4.40;99.90;;;;;;5117671;28;20453;-72
2022/01/25 06:40:05;;;;;;;33.47;16.67;;;4.40;99.90;;;;;;5118180;27;20460;-71
2022/01/25 06:42:32;;;;;;;33.80;17.83;;;4.40;99.90;;;;;;5117642;28;20491;-71
2022/01/25 06:45:01;;;;;;;30.27;15.70;;;4.40;99.90;;;;;;5117904;28;20502;-72
2022/01/25 06:47:28;;;;;;;30.90;16.90;;;4.40;99.90;;;;;;5116996;28;20545;-71
2022/01/25 06:49:56;;;;;;;30.60;15.70;;;4.40;99.90;;;;;;5116727;28;20490;-71
2022/01/25 06:52:23;;;;;;;31.93;16.23;;;4.40;99.90;;;;;;5117774;28;20836;-72
2022/01/25 06:54:50;;;;;;;31.47;16.77;;;4.40;99.90;;;;;;5118065;28;20452;-72
2022/01/25 06:57:18;;;;;;;35.10;17.70;;;4.40;99.90;;;;;;5118348;28;20452;-72
2022/01/25 06:59:45;;;;;;;30.90;16.13;;;4.30;99.90;;;;;;5118906;28;20488;-72
2022/01/25 07:02:13;;;;;;;32.40;16.13;;;4.30;99.90;;;;;;5118774;28;20467;-72
2022/01/25 07:04:40;;;;;;;31.87;17.97;;;4.30;99.90;;;;;;5118399;28;20480;-71
2022/01/25 07:07:07;;;;;;;30.40;15.97;;;4.30;99.90;;;;;;5117653;28;20452;-72
2022/01/25 07:09:35;;;;;;;33.37;17.53;;;4.30;99.90;;;;;;5116774;28;20552;-71
2022/01/25 07:12:02;;;;;;;33.97;15.93;;;4.30;99.90;;;;;;5116954;28;20460;-72
2022/01/25 07:14:30;;;;;;;33.13;17.00;;;4.30;99.90;;;;;;5117013;28;20456;-71
2022/01/25 07:17:03;;;;;;;36.60;17.87;;;4.30;99.90;;;;;;5116870;28;20471;-72
2022/01/25 07:19:30;;;;;;;33.97;16.90;;;4.30;99.90;;;;;;5116828;28;20475;-72
2022/01/25 07:21:57;;;;;;;32.73;16.30;;;4.30;99.90;;;;;;5117083;28;20452;-72
2022/01/25 07:24:23;;;;;;;37.80;18.87;;;4.30;99.90;;;;;;5116854;28;20476;-72
2022/01/25 07:26:50;;;;;;;32.37;16.17;;;4.30;99.90;;;;;;5117139;28;20470;-72
2022/01/25 07:29:17;;;;;;;47.70;16.67;;;4.30;99.90;;;;;;5116888;28;20452;-72
2022/01/25 07:31:45;;;;;;;35.20;16.37;;;4.40;99.90;;;;;;5117188;28;20475;-72
2022/01/25 07:34:12;;;;;;;35.03;17.43;;;4.30;99.90;;;;;;5116747;28;20456;-72
2022/01/25 07:36:42;;;;;;;34.50;16.13;;;4.40;99.90;;;;;;5116330;28;20448;-72
2022/01/25 07:39:09;;;;;;;35.07;16.47;;;4.40;99.90;;;;;;5116500;28;20521;-72
2022/01/25 07:41:36;;;;;;;32.40;17.80;;;4.40;99.90;;;;;;5116197;28;20463;-72
2022/01/25 07:44:03;;;;;;;36.27;16.80;;;4.40;99.90;;;;;;5117326;28;20533;-72
2022/01/25 07:46:31;;;;;;;39.67;19.27;;;4.30;99.90;;;;;;5117842;28;20487;-72
2022/01/25 07:48:59;;;;;;;38.67;19.50;;;4.30;99.90;;;;;;5117402;28;20452;-71
2022/01/25 07:51:27;;;;;;;38.23;18.30;;;4.30;99.90;;;;;;5116604;28;20456;-72
2022/01/25 07:53:53;;;;;;;37.10;18.60;;;4.30;99.90;;;;;;5116251;28;20452;-71
2022/01/25 07:56:20;;;;;;;39.70;18.67;;;4.20;99.90;;;;;;5116826;28;20482;-71
2022/01/25 07:58:47;;;;;;;39.03;19.63;;;4.20;99.90;;;;;;5115883;28;20463;-71
2022/01/25 08:01:15;;;;;;;37.97;18.30;;;4.20;99.90;;;;;;5116672;28;20462;-72
2022/01/25 08:03:42;;;;;;;42.20;20.53;;;4.20;99.90;;;;;;5117568;28;20452;-72
2022/01/25 08:06:10;;;;;;;41.00;19.50;;;4.20;99.90;;;;;;5115906;28;20529;-72
2022/01/25 08:08:37;;;;;;;45.00;21.63;;;4.20;99.90;;;;;;5116050;28;20464;-72
2022/01/25 08:11:04;;;;;;;40.43;19.83;;;4.20;99.90;;;;;;5116680;27;20456;-72
2022/01/25 08:13:31;;;;;;;46.87;20.40;;;4.20;99.90;;;;;;5116129;28;20465;-71
2022/01/25 08:15:58;;;;;;;43.30;20.17;;;4.20;99.90;;;;;;5116379;28;20448;-69
2022/01/25 08:18:25;;;;;;;47.60;21.83;;;4.20;99.90;;;;;;5115914;28;20799;-69
2022/01/25 08:20:51;;;;;;;39.70;19.60;;;4.20;99.90;;;;;;5115663;28;20463;-71
2022/01/25 08:23:19;;;;;;;41.00;19.27;;;4.20;99.90;;;;;;5115541;28;20467;-71
2022/01/25 08:25:46;;;;;;;42.30;19.77;;;4.10;99.90;;;;;;5115389;28;20761;-71
2022/01/25 08:28:13;;;;;;;43.30;20.77;;;4.10;99.90;;;;;;5115820;28;20456;-71
2022/01/25 08:30:39;;;;;;;44.37;19.57;;;4.10;99.90;;;;;;5115352;28;20467;-71
2022/01/25 08:33:06;;;;;;;40.17;20.13;;;4.20;99.90;;;;;;5115577;28;20467;-71
2022/01/25 08:35:33;;;;;;;42.70;20.20;;;4.20;99.90;;;;;;5115579;28;20470;-71
2022/01/25 08:37:59;;;;;;;42.40;19.47;;;4.30;99.90;;;;;;5115412;28;20464;-71
2022/01/25 08:40:30;;;;;;;46.50;21.87;;;4.30;99.90;;;;;;5115288;28;20456;-71
2022/01/25 08:42:57;;;;;;;40.43;18.70;;;4.30;99.90;;;;;;5114903;28;20487;-72
2022/01/25 08:45:23;;;;;;;44.93;19.07;;;4.40;99.90;;;;;;5114869;28;20975;-71
2022/01/25 08:47:50;;;;;;;39.30;19.80;;;4.40;99.90;;;;;;5114573;28;20567;-71
2022/01/25 08:50:17;;;;;;;41.93;18.50;;;4.40;99.90;;;;;;5114957;28;20456;-70
2022/01/25 08:52:44;;;;;;;40.80;19.43;;;4.40;99.90;;;;;;5115327;28;20460;-71
2022/01/25 08:55:11;;;;;;;40.10;18.43;;;4.40;99.90;;;;;;5114876;28;20453;-71
2022/01/25 08:57:39;;;;;;;37.67;18.97;;;4.50;99.90;;;;;;5115106;28;20843;-70
2022/01/25 09:00:09;;;;;;;41.93;20.77;;;4.50;99.90;;;;;;5114820;28;20469;-70
2022/01/25 09:02:36;;;;;;;33.93;18.10;;;4.50;99.90;;;;;;5114995;28;20441;-68
2022/01/25 09:05:03;;;;;;;36.97;18.40;;;4.50;99.90;;;;;;5115112;28;20541;-70
2022/01/25 09:07:30;;;;;;;42.93;18.93;;;4.50;99.90;;;;;;5115110;28;20460;-70
2022/01/25 09:09:57;;;;;;;41.37;17.97;;;4.50;99.90;;;;;;5115113;28;20456;-70
2022/01/25 09:12:24;;;;;;;41.07;19.60;;;4.50;99.90;;;;;;5114568;28;20460;-70
2022/01/25 09:14:52;;;;;;;40.03;18.47;;;4.50;99.90;;;;;;5115328;28;20776;-70
2022/01/25 09:17:19;;;;;;;42.37;19.53;;;4.50;99.90;;;;;;5115598;28;20474;-70
2022/01/25 09:19:45;;;;;;;36.77;17.07;;;4.50;99.90;;;;;;5114579;28;20456;-71
2022/01/25 09:22:12;;;;;;;37.77;18.07;;;4.60;99.90;;;;;;5114988;28;20457;-70
2022/01/25 09:24:39;;;;;;;41.30;18.93;;;4.50;99.90;;;;;;5114588;28;20460;-72
2022/01/25 09:27:08;;;;;;;34.10;18.07;;;4.50;99.90;;;;;;5114903;28;20456;-72
2022/01/25 09:29:35;;;;;;;37.83;18.50;;;4.60;99.90;;;;;;5114373;28;20989;-72
2022/01/25 09:32:04;;;;;;;37.50;18.93;;;4.60;99.90;;;;;;5114535;28;20466;-72
2022/01/25 09:34:31;;;;;;;40.63;17.60;;;4.60;99.90;;;;;;5115763;28;20456;-71
2022/01/25 09:36:57;;;;;;;37.90;18.47;;;4.60;99.90;;;;;;5114740;28;20452;-72
2022/01/25 09:39:24;;;;;;;36.00;18.83;;;4.60;99.90;;;;;;5114973;28;20456;-72
2022/01/25 09:41:53;;;;;;;45.37;18.87;;;4.60;99.90;;;;;;5114739;28;20460;-72
2022/01/25 09:44:20;;;;;;;39.53;18.40;;;4.70;99.90;;;;;;5114541;28;20988;-72
2022/01/25 09:46:46;;;;;;;32.70;18.30;;;4.70;99.90;;;;;;5114541;28;20485;-72
2022/01/25 09:49:16;;;;;;;33.80;17.90;;;4.70;99.90;;;;;;5114962;28;20521;-72
2022/01/25 09:51:45;;;;;;;39.53;18.70;;;4.70;99.90;;;;;;5114577;28;20456;-72
2022/01/25 09:54:12;;;;;;;37.27;18.27;;;4.70;99.90;;;;;;5114849;28;20452;-72
2022/01/25 09:56:39;;;;;;;34.93;17.20;;;4.60;99.90;;;;;;5114453;28;20463;-72
2022/01/25 09:59:05;;;;;;;36.97;17.77;;;4.60;99.90;;;;;;5114344;28;20479;-72
2022/01/25 10:01:33;;;;;;;39.50;17.23;;;4.60;99.90;;;;;;5114467;28;20490;-72
2022/01/25 10:04:04;;;;;;;32.20;16.80;;;4.60;99.90;;;;;;5114700;28;20462;-72
2022/01/25 10:06:34;;;;;;;31.67;15.63;;;4.60;99.90;;;;;;5114328;28;20464;-72
2022/01/25 10:09:01;;;;;;;35.73;16.60;;;4.50;99.90;;;;;;5115426;28;20471;-72
2022/01/25 10:11:28;;;;;;;35.50;15.77;;;4.60;99.90;;;;;;5114564;28;20482;-72
2022/01/25 10:13:57;;;;;;;33.80;16.20;;;4.60;99.90;;;;;;5114473;28;20452;-72
2022/01/25 10:16:32;;;;;;;37.93;16.40;;;4.60;99.90;;;;;;5114151;28;20513;-73
2022/01/25 10:19:00;;;;;;;36.83;19.23;;;4.60;99.90;;;;;;5114737;28;20440;-72
2022/01/25 10:21:28;;;;;;;40.33;17.17;;;4.70;99.90;;;;;;5114412;28;20456;-72
2022/01/25 10:24:06;;;;;;;35.73;16.87;;;4.70;99.90;;;;;;5114970;28;20452;-71
2022/01/25 10:26:34;;;;;;;33.60;16.10;;;4.70;99.90;;;;;;5118195;28;20460;-71
2022/01/25 10:29:01;;;;;;;39.33;15.80;;;4.70;99.90;;;;;;5118182;28;20483;-70
2022/01/25 10:31:35;;;;;;;29.10;13.70;;;4.60;99.90;;;;;;5118116;28;20468;-70
2022/01/25 10:34:03;;;;;;;37.23;17.90;;;4.70;99.90;;;;;;5118891;28;20441;-71
2022/01/25 10:36:32;;;;;;;43.07;17.80;;;4.70;99.90;;;;;;5117932;28;20460;-70
2022/01/25 10:38:58;;;;;;;33.70;15.23;;;4.70;99.90;;;;;;5117884;28;20452;-70
2022/01/25 10:41:29;;;;;;;32.30;14.53;;;4.80;99.90;;;;;;5117868;28;20842;-70
2022/01/25 10:43:57;;;;;;;36.13;16.87;;;4.70;99.90;;;;;;5118149;28;20771;-70
2022/01/25 10:46:26;;;;;;;29.50;14.70;;;4.70;99.90;;;;;;5117633;28;20476;-70
2022/01/25 10:48:57;;;;;;;33.13;14.20;;;4.70;99.90;;;;;;5117594;28;20468;-71
2022/01/25 10:51:26;;;;;;;25.60;12.17;;;4.70;99.90;;;;;;5120040;28;20495;-69
2022/01/25 10:53:59;;;;;;;29.73;12.83;;;4.70;99.90;;;;;;5118758;28;20802;-70
2022/01/25 10:56:33;;;;;;;37.83;15.97;;;4.60;99.90;;;;;;5117706;28;20468;-70
2022/01/25 10:59:02;;;;;;;33.40;14.10;;;4.60;99.90;;;;;;5117254;28;20449;-70
2022/01/25 11:01:33;;;;;;;32.60;15.43;;;4.60;99.90;;;;;;5117935;28;20517;-71
2022/01/25 11:04:06;;;;;;;33.30;14.27;;;4.60;99.90;;;;;;5117008;28;20460;-71
2022/01/25 11:06:33;;;;;;;30.40;14.70;;;4.70;99.90;;;;;;5117121;28;20473;-71
2022/01/25 11:09:03;;;;;;;27.07;13.10;;;4.70;99.90;;;;;;5117040;28;20814;-71
2022/01/25 11:11:34;;;;;;;28.17;13.00;;;4.70;99.90;;;;;;5117156;28;20437;-71
2022/01/25 11:14:50;;;;;;;30.13;13.70;;;4.80;99.90;;;;;;5117430;28;20532;-70
2022/01/25 11:16:50;;;;;;;30.97;14.17;;;4.80;99.90;;;;;;5116709;28;20540;-71
2022/01/25 11:19:17;;;;;;;26.27;11.70;;;4.90;99.90;;;;;;5117341;28;20456;-70
2022/01/25 11:21:44;;;;;;;29.23;12.30;;;4.90;99.90;;;;;;5117123;27;20933;-71
2022/01/25 11:24:13;;;;;;;26.70;14.90;;;4.90;99.90;;;;;;5117472;28;20460;-71
2022/01/25 11:26:42;;;;;;;25.53;13.17;;;4.90;99.90;;;;;;5117566;28;20835;-71
2022/01/25 11:29:10;;;;;;;22.60;12.43;;;4.90;99.90;;;;;;5118456;27;20482;-72
2022/01/25 11:31:39;;;;;;;28.70;13.77;;;5.00;99.90;;;;;;5117289;28;20575;-72
2022/01/25 11:34:08;;;;;;;30.57;11.90;;;5.00;99.90;;;;;;5116732;28;20456;-71
2022/01/25 11:36:45;;;;;;;22.97;11.87;;;5.10;99.90;;;;;;5116209;28;20463;-70
2022/01/25 11:39:16;;;;;;;24.63;12.60;;;5.10;99.90;;;;;;5117291;28;20440;-70
2022/01/25 11:41:44;;;;;;;24.70;11.20;;;5.10;99.90;;;;;;5119623;27;20432;-71
2022/01/25 11:44:14;;;;;;;24.00;13.10;;;5.10;99.90;;;;;;5118704;28;20456;-70
2022/01/25 11:46:46;;;;;;;23.13;12.40;;;5.20;99.90;;;;;;5118753;28;20579;-70
2022/01/25 11:49:18;;;;;;;25.23;12.10;;;5.20;99.90;;;;;;5120592;28;20736;-70
2022/01/25 11:51:46;;;;;;;25.90;12.80;;;5.20;99.90;;;;;;5119821;27;20441;-71
2022/01/25 11:54:13;;;;;;;24.07;12.40;;;5.30;99.90;;;;;;5120923;28;20472;-71
2022/01/25 11:56:41;;;;;;;21.13;11.70;;;5.20;99.90;;;;;;5120881;28;20460;-72
2022/01/25 12:02:38;;;;;;;23.50;11.73;;;5.30;99.90;;;;;;5082196;28;20452;-72
2022/01/25 12:05:05;;;;;;;19.80;10.70;;;5.30;99.90;;;;;;5116426;28;20452;-70
2022/01/25 12:07:38;;;;;;;25.23;12.00;;;5.30;99.90;;;;;;5116324;28;20481;-72
2022/01/25 12:10:35;;;;;;;20.10;11.20;;;5.30;99.90;;;;;;5115903;28;20445;-72
2022/01/25 12:13:17;;;;;;;22.97;11.17;;;5.30;99.90;;;;;;5116028;28;20448;-71
2022/01/25 12:15:45;;;;;;;20.67;11.30;;;5.30;99.90;;;;;;5115602;28;20463;-71
2022/01/25 12:18:45;;;;;;;24.47;10.90;;;5.30;99.90;;;;;;5115677;28;20460;-70
2022/01/25 12:21:12;;;;;;;20.40;11.17;;;5.30;99.90;;;;;;5115427;28;20566;-70
2022/01/25 12:23:45;;;;;;;22.90;12.07;;;5.30;99.90;;;;;;5115461;28;20473;-72
2022/01/25 12:26:17;;;;;;;19.40;10.30;;;5.40;99.90;;;;;;5116376;28;20468;-72
2022/01/25 12:28:46;;;;;;;24.13;11.97;;;5.40;99.90;;;;;;5116273;28;20445;-74
2022/01/25 12:31:15;;;;;;;26.13;11.87;;;5.40;99.90;;;;;;5116336;28;20453;-72
2022/01/25 12:33:43;;;;;;;24.33;11.20;;;5.40;99.90;;;;;;5115881;28;20456;-72
2022/01/25 12:36:10;;;;;;;21.20;11.10;;;5.40;99.90;;;;;;5115602;28;20464;-71
2022/01/25 12:38:43;;;;;;;20.77;11.20;;;5.40;99.90;;;;;;5116381;28;20461;-71
2022/01/25 12:41:15;;;;;;;24.03;11.13;;;5.40;99.90;;;;;;5115354;28;20467;-71
2022/01/25 12:43:44;;;;;;;19.03;10.20;;;5.40;99.90;;;;;;5115671;28;20444;-71
2022/01/25 12:46:12;;;;;;;24.90;11.37;;;5.40;99.90;;;;;;5115427;28;20486;-70
2022/01/25 12:48:44;;;;;;;27.70;12.43;;;5.40;99.90;;;;;;5115386;28;20437;-71
2022/01/25 12:51:13;;;;;;;20.07;10.97;;;5.40;99.90;;;;;;5116049;28;20440;-72
2022/01/25 12:53:43;;;;;;;24.03;11.60;;;5.30;99.90;;;;;;5115354;28;20464;-72
2022/01/25 12:56:15;;;;;;;26.77;12.93;;;5.40;99.90;;;;;;5115732;28;20448;-71
2022/01/25 12:58:44;;;;;;;25.53;13.00;;;5.30;99.90;;;;;;5115867;28;20802;-72
2022/01/25 13:01:15;;;;;;;24.63;12.73;;;5.30;99.90;;;;;;5115503;28;20460;-72
2022/01/25 13:03:43;;;;;;;28.10;12.93;;;5.30;99.90;;;;;;5115463;28;20830;-72
2022/01/25 13:06:13;;;;;;;28.63;13.77;;;5.30;99.90;;;;;;5115810;28;20480;-71
2022/01/25 13:08:46;;;;;;;27.00;13.93;;;5.30;99.90;;;;;;5116338;28;20747;-72
2022/01/25 13:11:19;;;;;;;30.30;15.13;;;5.30;99.90;;;;;;5118713;28;20441;-71
2022/01/25 13:13:58;;;;;;;27.30;14.20;;;5.20;99.90;;;;;;5119347;28;20488;-72
2022/01/25 13:16:43;;;;;;;27.70;14.20;;;5.20;99.90;;;;;;5118876;28;20590;-72
2022/01/25 13:19:10;;;;;;;38.80;15.50;;;5.20;99.90;;;;;;5118617;28;20437;-72
2022/01/25 13:21:43;;;;;;;30.37;15.87;;;5.20;99.90;;;;;;5118812;28;20496;-72
2022/01/25 13:24:12;;;;;;;28.20;15.20;;;5.20;99.90;;;;;;5117813;28;20447;-71
2022/01/25 13:26:55;;;;;;;34.50;16.43;;;5.30;99.90;;;;;;5115248;28;20484;-71
2022/01/25 13:32:11;;;;;;;32.70;15.80;;;5.30;99.90;;;;;;5114833;28;20432;-72
2022/01/25 13:34:38;;;;;;;30.87;14.63;;;5.30;99.90;;;;;;5114834;28;20917;-71
2022/01/25 13:37:05;;;;;;;29.93;15.90;;;5.40;99.90;;;;;;5114373;28;20448;-71
2022/01/25 13:39:35;;;;;;;30.80;16.30;;;5.40;99.90;;;;;;5114541;28;20460;-71
2022/01/25 13:42:08;;;;;;;36.50;15.40;;;5.40;99.90;;;;;;5114350;28;20478;-71
2022/01/25 13:47:19;;;;;;;32.90;15.27;;;5.40;99.90;;;;;;5114067;28;20483;-71
2022/01/25 13:49:47;;;;;;;28.20;15.07;;;5.40;99.90;;;;;;5114611;28;20453;-72
2022/01/25 13:52:14;;;;;;;28.20;14.17;;;5.40;99.90;;;;;;5114575;28;20741;-72
2022/01/25 13:54:40;;;;;;;35.80;15.77;;;5.40;99.90;;;;;;5114843;28;20748;-72
2022/01/25 13:57:12;;;;;;;33.43;15.63;;;5.30;99.90;;;;;;5114909;28;20448;-72
2022/01/25 13:59:40;;;;;;;30.80;14.83;;;5.30;99.90;;;;;;5119006;28;20746;-72
2022/01/25 14:02:07;;;;;;;31.17;13.80;;;5.30;99.90;;;;;;5118639;28;20471;-72
2022/01/25 14:04:38;;;;;;;33.33;14.73;;;5.30;99.90;;;;;;5118471;28;20934;-71
2022/01/25 14:07:05;;;;;;;31.00;15.70;;;5.30;99.90;;;;;;5118426;28;20499;-72
2022/01/25 14:09:34;;;;;;;29.93;16.47;;;5.30;99.90;;;;;;5118495;28;20526;-71